Scf Pioneer — A8YG6 — position and weather

sailwx.info

Track history (hours):
 
Tides and Currents Weather Stations Pressure Air Temp Water Temp Dewpoint Dewpoint Depression Visibility Wind Speed Wind Dir Waves Ship Positions

Scf Pioneer

Last reported at 2018-Aug-10 07:08 UTC. Time now 2018-Aug-14 23:44 UTC.
Position N 27°27' W 079°47'.

Length 228 m; draft 10.7 m.

Type: Ship. MMSI: 636015049.

Date/timePositionNaut miles runAvg speedWind from/ knotsBaromVisibWave heightAir tempDewpointWater temp
2018-Aug-10 07:08N 27°27' W 079°47'415.5
2018-Aug-10 06:53N 27°23' W 079°44'2514.9
2018-Aug-10 05:12N 27°01' W 079°32'415.1
2018-Aug-10 04:57N 26°57' W 079°32'715.3
2018-Aug-10 04:30N 26°51' W 079°30'815.9
2018-Aug-10 03:59N 26°42' W 079°28'2114.9
2018-Aug-10 02:35N 26°21' W 079°28'115.3
2018-Aug-10 02:30N 26°20' W 079°28'815.0
2018-Aug-10 02:00N 26°13' W 079°29'714.6
2018-Aug-10 01:30N 26°06' W 079°30'611.4
2018-Aug-10 00:59N 25°60' W 079°30'3 6.2
2018-Aug-10 00:30N 25°57' W 079°31'2 3.6
2018-Aug-09 23:59N 25°55' W 079°31'2 4.5
2018-Aug-09 23:30N 25°53' W 079°31'3 6.5
2018-Aug-09 23:00N 25°50' W 079°32'611.8
2018-Aug-09 22:30N 25°44' W 079°33'714.5
2018-Aug-09 22:01N 25°37' W 079°34'714.2
2018-Aug-09 21:30N 25°29' W 079°34'714.2
2018-Aug-09 20:59N 25°22' W 079°35'  
2018-Aug-05 23:08N 09°36' W 079°57'110.8
2018-Aug-05 23:01N 09°35' W 079°56'611.4
2018-Aug-05 22:31N 09°29' W 079°55'612.3
2018-Aug-05 22:01N 09°23' W 079°55'4 7.8
2018-Aug-05 21:30N 09°19' W 079°55'3 5.1
2018-Aug-05 21:00N 09°17' W 079°55'0 0.4
2018-Aug-05 20:30N 09°16' W 079°55'0 0.5
2018-Aug-05 20:00N 09°16' W 079°55'0 0.6
2018-Aug-05 19:30N 09°16' W 079°55'2 4.1
2018-Aug-05 18:59N 09°14' W 079°55'  
Track history (hours):
 
Tides and Currents Weather Stations Pressure Air Temp Water Temp Dewpoint Dewpoint Depression Visibility Wind Speed Wind Dir Waves Ship Positions

Scf Pioneer

Last reported at 2018-Aug-10 07:08 UTC. Time now 2018-Aug-14 23:44 UTC.
Position N 27°27' W 079°47'.

Length 228 m; draft 10.7 m.

Type: Ship. MMSI: 636015049.

Date/timePositionNaut miles runAvg speedWind from/ knotsBaromVisibWave heightAir tempDewpointWater temp
2018-Aug-10 07:08N 27°27' W 079°47'415.5
2018-Aug-10 06:53N 27°23' W 079°44'2514.9
2018-Aug-10 05:12N 27°01' W 079°32'415.1
2018-Aug-10 04:57N 26°57' W 079°32'715.3
2018-Aug-10 04:30N 26°51' W 079°30'815.9
2018-Aug-10 03:59N 26°42' W 079°28'2114.9
2018-Aug-10 02:35N 26°21' W 079°28'115.3
2018-Aug-10 02:30N 26°20' W 079°28'815.0
2018-Aug-10 02:00N 26°13' W 079°29'714.6
2018-Aug-10 01:30N 26°06' W 079°30'611.4
2018-Aug-10 00:59N 25°60' W 079°30'3 6.2
2018-Aug-10 00:30N 25°57' W 079°31'2 3.6
2018-Aug-09 23:59N 25°55' W 079°31'2 4.5
2018-Aug-09 23:30N 25°53' W 079°31'3 6.5
2018-Aug-09 23:00N 25°50' W 079°32'611.8
2018-Aug-09 22:30N 25°44' W 079°33'714.5
2018-Aug-09 22:01N 25°37' W 079°34'714.2
2018-Aug-09 21:30N 25°29' W 079°34'714.2
2018-Aug-09 20:59N 25°22' W 079°35'  
2018-Aug-05 23:08N 09°36' W 079°57'110.8
2018-Aug-05 23:01N 09°35' W 079°56'611.4
2018-Aug-05 22:31N 09°29' W 079°55'612.3
2018-Aug-05 22:01N 09°23' W 079°55'4 7.8
2018-Aug-05 21:30N 09°19' W 079°55'3 5.1
2018-Aug-05 21:00N 09°17' W 079°55'0 0.4
2018-Aug-05 20:30N 09°16' W 079°55'0 0.5
2018-Aug-05 20:00N 09°16' W 079°55'0 0.6
2018-Aug-05 19:30N 09°16' W 079°55'2 4.1
2018-Aug-05 18:59N 09°14' W 079°55'  

Dump ship's entire track history